Time;durP1;ratioP1;P1;durP2;ratioP2;P2;SDS_P1;SDS_P2;PMS_P1;PMS_P2;Temp;Humidity;BMP_temperature;BMP_pressure;BME280_temperature;BME280_humidity;BME280_pressure;Samples;Min_cycle;Max_cycle;Signal;HPM_P1;HPM_P2
2020/12/13 00:01:57;;;;;;;75.17;30.53;;;8.90;99.90;;;6.35;100.00;100350.56;5097533;28;20205;-81
2020/12/13 00:04:43;;;;;;;71.57;32.00;;;8.90;99.90;;;6.37;100.00;100356.50;5092882;28;20316;-81
2020/12/13 00:07:28;;;;;;;70.43;30.87;;;8.90;99.90;;;6.38;100.00;100354.78;5091623;28;20228;-80
2020/12/13 00:10:13;;;;;;;79.97;30.53;;;8.90;99.90;;;6.37;100.00;100356.50;5082088;28;20218;-81
2020/12/13 00:12:59;;;;;;;79.83;31.60;;;8.80;99.90;;;6.39;100.00;100374.47;5085574;28;20268;-82
2020/12/13 00:15:44;;;;;;;70.27;28.63;;;8.80;99.90;;;6.32;100.00;100379.69;5099849;28;20214;-81
2020/12/13 00:18:30;;;;;;;75.20;31.63;;;9.00;99.90;;;6.29;100.00;100374.63;5081160;28;20202;-83
2020/12/13 00:21:19;;;;;;;75.87;30.30;;;8.80;99.90;;;6.28;100.00;100385.75;5095389;28;20318;-80
2020/12/13 00:24:04;;;;;;;72.17;29.87;;;9.00;99.90;;;6.27;100.00;100378.91;5084821;28;20630;-81
2020/12/13 00:26:50;;;;;;;79.73;31.83;;;8.80;99.90;;;6.25;100.00;100384.97;5088370;28;20240;-82
2020/12/13 00:29:35;;;;;;;74.67;30.77;;;8.80;99.90;;;6.23;100.00;100390.13;5093641;28;20753;-81
2020/12/13 00:32:21;;;;;;;71.60;31.47;;;8.80;99.90;;;6.24;100.00;100384.09;5085374;28;20226;-80
2020/12/13 00:35:06;;;;;;;81.67;30.47;;;8.80;99.90;;;6.24;100.00;100390.97;5092690;28;20221;-81
2020/12/13 00:37:55;;;;;;;70.83;29.33;;;8.70;99.90;;;6.23;100.00;100392.69;5091750;28;20701;-82
2020/12/13 00:40:41;;;;;;;72.93;27.97;;;8.70;99.90;;;6.22;100.00;100390.97;5080530;28;20210;-82
2020/12/13 00:43:26;;;;;;;77.67;29.13;;;8.70;99.90;;;6.24;100.00;100398.66;5093492;28;20268;-81
2020/12/13 00:46:11;;;;;;;76.27;29.00;;;8.70;99.90;;;6.24;100.00;100407.22;5086792;28;20197;-81
2020/12/13 00:48:56;;;;;;;79.10;30.10;;;8.70;99.90;;;6.22;100.00;100410.69;5079031;28;20280;-81
2020/12/13 00:51:42;;;;;;;87.37;31.07;;;8.70;99.90;;;6.20;100.00;100407.28;5085516;28;20283;-84
2020/12/13 00:54:28;;;;;;;89.27;31.87;;;8.70;99.90;;;6.18;100.00;100409.03;5087323;28;20213;-82
2020/12/13 00:57:13;;;;;;;87.83;30.63;;;8.70;99.90;;;6.18;100.00;100409.03;5078420;28;20241;-80
2020/12/13 00:59:59;;;;;;;97.53;30.57;;;8.70;99.90;;;6.18;100.00;100411.59;5079212;28;20206;-79
2020/12/13 01:02:44;;;;;;;125.03;32.03;;;8.70;99.90;;;6.17;100.00;100408.19;5079477;28;20209;-80
2020/12/13 01:05:29;;;;;;;112.50;31.10;;;8.70;99.90;;;6.16;100.00;100409.06;5088668;28;20248;-81
2020/12/13 01:08:14;;;;;;;124.83;31.80;;;8.70;99.90;;;6.19;100.00;100403.03;5091325;28;20205;-81
2020/12/13 01:11:01;;;;;;;105.40;30.37;;;8.70;99.90;;;6.18;100.00;100411.59;5110182;28;20244;-82
2020/12/13 01:13:46;;;;;;;124.77;31.63;;;8.70;99.90;;;6.20;100.00;100415.84;5097996;28;20246;-81
2020/12/13 01:16:31;;;;;;;185.30;36.97;;;8.70;99.90;;;6.18;100.00;100411.59;5087069;28;20217;-81
2020/12/13 01:19:17;;;;;;;219.10;35.70;;;8.70;99.90;;;6.17;100.00;100412.47;5102772;28;20216;-80
2020/12/13 01:22:02;;;;;;;132.53;31.70;;;8.70;99.90;;;6.16;100.00;100419.31;5102238;28;20577;-80
2020/12/13 01:24:48;;;;;;;180.13;35.47;;;8.70;99.90;;;6.16;100.00;100421.91;5090885;28;20288;-81
2020/12/13 01:27:35;;;;;;;112.90;30.17;;;8.70;99.90;;;6.14;100.00;100426.19;5089535;28;20201;-79
2020/12/13 01:30:20;;;;;;;152.60;33.80;;;8.70;99.90;;;6.15;100.00;100428.72;5089198;28;20572;-79
2020/12/13 01:33:05;;;;;;;113.17;30.37;;;8.70;99.90;;;6.14;100.00;100433.88;5092215;28;20214;-81
2020/12/13 01:35:50;;;;;;;178.30;36.23;;;8.70;99.90;;;6.12;100.00;100433.06;5087177;28;20193;-81
2020/12/13 01:38:36;;;;;;;182.23;34.33;;;8.70;99.90;;;6.12;100.00;100438.22;5079265;28;20333;-80
2020/12/13 01:41:21;;;;;;;189.30;35.20;;;8.80;99.90;;;6.11;100.00;100442.50;5097300;28;20775;-79
2020/12/13 01:44:07;;;;;;;113.27;28.80;;;8.70;99.90;;;6.12;100.00;100448.47;5095201;28;20248;-80
2020/12/13 01:46:52;;;;;;;243.70;39.87;;;8.70;99.90;;;6.11;100.00;100450.22;5082480;28;20252;-79
2020/12/13 01:49:40;;;;;;;192.00;35.70;;;8.70;99.90;;;6.11;100.00;100451.91;5085283;28;20210;-80
2020/12/13 01:52:44;;;;;;;139.50;31.33;;;8.70;99.90;;;6.13;100.00;100460.47;5088019;28;20820;-79
2020/12/13 01:55:29;;;;;;;164.10;32.83;;;8.70;99.90;;;6.11;100.00;100464.75;5089815;28;20197;-80
2020/12/13 01:58:21;;;;;;;259.20;39.43;;;8.60;99.90;;;6.10;100.00;100468.22;5088058;28;20263;-80
2020/12/13 02:01:08;;;;;;;239.13;36.00;;;8.60;99.90;;;6.08;100.00;100468.22;5087860;28;20204;-80
2020/12/13 02:03:59;;;;;;;178.67;35.03;;;8.60;99.90;;;6.06;100.00;100472.50;5098860;28;20233;-82
2020/12/13 02:06:51;;;;;;;170.00;34.17;;;8.70;99.90;;;6.07;100.00;100478.53;5086600;28;20203;-81
2020/12/13 02:09:37;;;;;;;255.70;39.00;;;8.60;99.90;;;6.08;100.00;100485.34;5098219;28;20193;-82
2020/12/13 02:12:25;;;;;;;213.70;37.53;;;8.70;99.90;;;6.09;100.00;100485.31;5089758;28;20233;-81
2020/12/13 02:15:11;;;;;;;223.47;38.83;;;8.70;99.90;;;6.09;100.00;100487.03;5088418;28;20216;-81
2020/12/13 02:17:57;;;;;;;289.70;41.60;;;8.60;99.90;;;6.09;100.00;100487.88;5084543;28;20206;-81
2020/12/13 02:20:42;;;;;;;178.87;34.27;;;8.60;99.90;;;6.10;100.00;100484.44;5089105;28;20201;-82
2020/12/13 02:23:30;;;;;;;222.83;34.17;;;8.60;99.90;;;6.11;100.00;100493.00;5081867;28;20222;-83
2020/12/13 02:26:16;;;;;;;222.43;37.03;;;8.70;99.90;;;6.12;100.00;100503.25;5090787;28;20252;-81
2020/12/13 02:29:01;;;;;;;285.37;43.30;;;8.60;99.90;;;6.12;100.00;100499.84;5101308;28;20224;-81
2020/12/13 02:31:47;;;;;;;206.70;35.03;;;8.70;99.90;;;6.14;100.00;100498.09;5100990;28;20213;-81
2020/12/13 02:34:32;;;;;;;148.77;30.90;;;8.70;99.90;;;6.14;100.00;100498.09;5088824;28;20225;-81
2020/12/13 02:37:17;;;;;;;186.80;33.43;;;8.70;99.90;;;6.17;100.00;100499.78;5082246;28;20290;-80
2020/12/13 02:40:05;;;;;;;239.90;37.87;;;8.70;99.90;;;6.15;100.00;100497.22;5082231;28;20209;-82
2020/12/13 02:42:50;;;;;;;156.63;32.37;;;8.70;99.90;;;6.17;100.00;100502.34;5094407;28;20212;-82
2020/12/13 02:45:35;;;;;;;102.80;30.23;;;8.70;99.90;;;6.19;100.00;100492.94;5091575;28;20298;-81
2020/12/13 02:48:22;;;;;;;161.10;32.97;;;8.70;99.90;;;6.18;100.00;100494.63;5070335;28;20210;-81
2020/12/13 02:51:07;;;;;;;166.47;35.97;;;8.70;99.90;;;6.17;100.00;100499.78;5080218;28;20217;-81
2020/12/13 02:53:53;;;;;;;84.33;30.03;;;8.70;99.90;;;6.17;100.00;100500.66;5069393;28;20742;-81
2020/12/13 02:56:42;;;;;;;90.50;29.70;;;8.70;99.90;;;6.24;100.00;100507.38;5080267;28;20288;-80
2020/12/13 02:59:27;;;;;;;69.97;30.00;;;8.70;99.90;;;6.31;100.00;100498.72;5072417;28;20250;-82
2020/12/13 03:02:13;;;;;;;77.27;32.00;;;8.50;99.90;;;6.50;100.00;100513.91;5073834;28;20207;-82
2020/12/13 03:04:58;;;;;;;79.73;33.43;;;8.70;99.90;;;6.59;100.00;100507.78;5071529;28;20591;-80
2020/12/13 03:07:43;;;;;;;86.17;36.13;;;8.70;99.90;;;6.68;100.00;100518.78;5066138;28;20317;-81
2020/12/13 03:10:29;;;;;;;89.00;37.23;;;8.70;99.90;;;6.73;100.00;100513.59;5064338;28;20707;-81
2020/12/13 03:13:15;;;;;;;103.97;38.17;;;8.70;99.90;;;6.77;100.00;100512.66;5065753;28;20225;-80
2020/12/13 03:16:00;;;;;;;93.13;38.17;;;8.70;99.90;;;6.81;100.00;100521.19;5063372;28;20252;-81
2020/12/13 03:18:45;;;;;;;86.93;35.43;;;8.70;99.90;;;6.80;100.00;100524.63;5068653;28;20266;-80
2020/12/13 03:21:31;;;;;;;93.13;37.80;;;8.80;99.90;;;6.82;100.00;100526.31;5074124;28;20198;-80
2020/12/13 03:24:16;;;;;;;98.13;39.30;;;8.80;99.90;;;6.83;100.00;100527.16;5078046;28;20210;-80
2020/12/13 03:27:02;;;;;;;97.73;38.50;;;8.80;99.90;;;6.82;100.00;100530.56;5069953;28;20209;-80
2020/12/13 03:29:48;;;;;;;76.10;33.17;;;8.80;99.90;;;6.83;100.00;100525.41;5065402;28;20699;-80
2020/12/13 03:32:35;;;;;;;102.23;38.70;;;8.90;99.90;;;6.83;100.00;100525.41;5063689;28;20199;-81
2020/12/13 03:35:20;;;;;;;88.67;36.37;;;8.90;99.90;;;6.81;100.00;100536.63;5066628;28;20201;-81
2020/12/13 03:38:06;;;;;;;83.43;34.57;;;8.90;99.90;;;6.78;100.00;100534.09;5073285;28;20211;-81
2020/12/13 03:40:51;;;;;;;83.37;35.13;;;8.90;99.90;;;6.82;100.00;100535.72;5060528;28;20203;-81
2020/12/13 03:43:36;;;;;;;76.50;34.53;;;8.90;99.90;;;6.84;100.00;100539.13;5064178;28;20218;-82
2020/12/13 03:46:23;;;;;;;73.90;32.53;;;8.90;99.90;;;6.89;100.00;100547.63;5059862;28;20261;-82
2020/12/13 03:49:08;;;;;;;80.63;33.10;;;8.80;99.90;;;6.89;100.00;100547.63;5073951;28;20599;-80
2020/12/13 03:51:54;;;;;;;72.77;34.20;;;8.90;99.90;;;6.91;100.00;100539.88;5091672;28;20191;-82
2020/12/13 03:54:39;;;;;;;88.73;36.00;;;8.90;99.90;;;6.89;100.00;100547.63;5085291;28;20225;-80
2020/12/13 03:57:24;;;;;;;83.27;31.40;;;9.10;99.90;;;6.91;100.00;100553.59;5077365;28;20210;-81
2020/12/13 04:00:10;;;;;;;80.40;32.47;;;9.10;99.90;;;6.91;100.00;100550.16;5076558;28;20202;-81
2020/12/13 04:02:57;;;;;;;73.20;34.70;;;9.00;99.90;;;6.92;100.00;100555.28;5071956;28;20217;-81
2020/12/13 04:05:42;;;;;;;71.10;31.73;;;9.00;99.90;;;6.94;100.00;100560.41;5074272;28;20252;-80
2020/12/13 04:08:27;;;;;;;68.77;30.33;;;9.00;99.90;;;6.98;100.00;100568.06;5065154;28;20676;-81
2020/12/13 04:11:13;;;;;;;76.20;30.40;;;9.00;99.90;;;6.99;100.00;100558.63;5077778;28;20202;-80
2020/12/13 04:13:58;;;;;;;66.90;29.50;;;8.90;99.90;;;6.96;100.00;100567.22;5077783;28;20222;-80
2020/12/13 04:16:44;;;;;;;71.80;32.47;;;9.10;99.90;;;7.01;100.00;100569.72;5061801;28;20278;-81
2020/12/13 04:19:31;;;;;;;63.60;26.73;;;9.00;99.90;;;7.05;100.00;100578.25;5062392;28;20273;-80
2020/12/13 04:22:16;;;;;;;57.63;26.77;;;9.10;99.90;;;7.01;100.00;100583.47;5062386;28;20290;-81
2020/12/13 04:25:01;;;;;;;56.23;26.77;;;9.10;99.90;;;7.00;100.00;100586.06;5057305;28;20332;-80
2020/12/13 04:27:47;;;;;;;64.70;27.33;;;9.20;99.90;;;7.00;100.00;100578.34;5075336;28;20297;-80
2020/12/13 04:30:32;;;;;;;65.33;27.73;;;9.10;99.90;;;7.01;100.00;100583.47;5063455;28;20277;-81
2020/12/13 04:33:17;;;;;;;61.63;25.07;;;9.10;99.90;;;7.01;100.00;100578.31;5058616;28;20241;-80
2020/12/13 04:36:06;;;;;;;58.93;25.10;;;9.30;99.90;;;7.01;100.00;100588.59;5070127;28;20252;-80
2020/12/13 04:38:51;;;;;;;60.50;27.00;;;9.10;99.90;;;7.03;100.00;100581.69;5071343;28;20296;-81
2020/12/13 04:41:36;;;;;;;60.73;25.97;;;9.20;99.90;;;7.03;100.00;100589.41;5072172;28;20213;-81
2020/12/13 04:44:23;;;;;;;59.10;26.83;;;9.30;99.90;;;7.05;100.00;100589.38;5068074;28;20222;-81
2020/12/13 04:47:09;;;;;;;62.57;30.27;;;9.20;99.90;;;7.06;100.00;100592.81;5077868;28;20217;-81
2020/12/13 04:49:56;;;;;;;59.30;28.40;;;9.20;99.90;;;7.06;100.00;100588.53;5079379;28;20252;-81
2020/12/13 04:52:43;;;;;;;40.40;21.33;;;9.20;99.90;;;7.06;100.00;100590.22;5091514;28;20198;-80
2020/12/13 04:55:29;;;;;;;60.13;26.93;;;9.20;99.90;;;7.10;100.00;100597.03;5094138;28;20613;-81
2020/12/13 04:58:17;;;;;;;46.73;22.33;;;9.20;99.90;;;7.11;100.00;100606.47;5081992;28;20279;-80
2020/12/13 05:01:04;;;;;;;59.10;27.23;;;9.20;99.90;;;7.11;100.00;100609.03;5084230;28;20206;-80
2020/12/13 05:03:49;;;;;;;53.67;26.70;;;9.20;99.90;;;7.11;100.00;100599.59;5087050;28;20279;-81
2020/12/13 05:06:36;;;;;;;52.37;27.87;;;9.20;99.90;;;7.12;100.00;100608.16;5089888;28;20227;-81
2020/12/13 05:09:22;;;;;;;52.47;24.73;;;9.20;99.90;;;7.14;100.00;100609.81;5091520;28;20628;-80
2020/12/13 05:12:08;;;;;;;50.60;25.07;;;9.20;99.90;;;7.12;100.00;100611.59;5092611;28;20232;-80
2020/12/13 05:14:53;;;;;;;35.13;18.47;;;9.20;99.90;;;7.15;100.00;100615.84;5100099;28;20232;-79
2020/12/13 05:17:39;;;;;;;46.13;23.20;;;9.20;99.90;;;7.10;100.00;100618.47;5084639;28;20244;-82
2020/12/13 05:20:27;;;;;;;45.80;24.60;;;9.20;99.90;;;7.02;100.00;100620.31;5086627;28;20201;-80
2020/12/13 05:23:13;;;;;;;48.20;23.70;;;9.20;99.90;;;6.98;100.00;100624.66;5087766;28;20279;-81
2020/12/13 05:25:59;;;;;;;51.37;23.43;;;9.20;99.90;;;6.94;100.00;100628.13;5083840;28;20217;-81
2020/12/13 05:28:47;;;;;;;44.20;22.97;;;9.30;99.90;;;6.95;100.00;100618.69;5089651;28;20213;-81
2020/12/13 05:31:41;;;;;;;46.00;23.83;;;9.30;99.90;;;6.92;100.00;100624.72;5082240;28;20638;-81
2020/12/13 05:34:26;;;;;;;45.17;23.80;;;9.30;99.90;;;6.93;100.00;100620.44;5083285;28;20217;-80
2020/12/13 05:37:17;;;;;;;39.23;20.73;;;9.10;99.90;;;6.93;100.00;100625.59;5081692;28;20245;-81
2020/12/13 05:40:08;;;;;;;41.90;20.57;;;9.20;99.90;;;6.93;100.00;100623.84;5095530;28;20198;-80
2020/12/13 05:43:02;;;;;;;45.30;23.10;;;9.20;99.90;;;6.95;100.00;100632.41;5094954;28;20194;-80
2020/12/13 05:46:03;;;;;;;47.40;24.97;;;9.20;99.90;;;6.94;100.00;100633.28;5089682;28;20202;-81
2020/12/13 05:49:03;;;;;;;44.57;23.07;;;9.20;99.90;;;6.92;100.00;100635.00;5096174;28;20283;-82
2020/12/13 05:51:50;;;;;;;48.10;24.40;;;9.20;99.90;;;6.93;100.00;100641.00;5092865;28;20205;-80
2020/12/13 05:54:37;;;;;;;47.07;24.77;;;9.20;99.90;;;6.92;100.00;100650.44;5092685;28;20244;-80
2020/12/13 05:57:23;;;;;;;53.10;27.37;;;9.20;99.90;;;6.92;100.00;100641.88;5086429;28;20209;-80
2020/12/13 06:00:09;;;;;;;46.53;24.77;;;9.20;99.90;;;6.90;100.00;100641.91;5095423;28;20213;-80
2020/12/13 06:02:59;;;;;;;45.80;24.80;;;9.20;99.90;;;6.92;100.00;100650.44;5078666;28;20631;-80
2020/12/13 06:05:52;;;;;;;44.27;23.80;;;9.20;99.90;;;6.92;100.00;100650.44;5080236;28;20365;-80
2020/12/13 06:09:05;;;;;;;43.03;21.60;;;9.20;99.90;;;6.94;100.00;100648.69;5092199;28;20552;-79
2020/12/13 06:11:50;;;;;;;48.70;24.13;;;9.20;99.90;;;6.93;100.00;100652.13;5094490;28;20217;-80
2020/12/13 06:14:39;;;;;;;47.73;25.03;;;9.20;99.90;;;6.92;100.00;100652.16;5097420;28;20273;-82
2020/12/13 06:17:27;;;;;;;40.10;22.70;;;9.20;99.90;;;6.93;100.00;100656.44;5098227;28;20200;-81
2020/12/13 06:20:13;;;;;;;42.80;22.43;;;9.20;99.90;;;6.94;100.00;100659.00;5102020;28;20221;-79
2020/12/13 06:23:02;;;;;;;46.83;24.73;;;9.30;99.90;;;6.93;100.00;100664.16;5097146;28;20210;-82
2020/12/13 06:25:49;;;;;;;40.67;23.63;;;9.20;99.90;;;6.94;100.00;100677.00;5082088;28;20209;-82
2020/12/13 06:28:35;;;;;;;44.47;21.40;;;9.20;99.90;;;6.94;100.00;100674.41;5097114;28;20795;-81
2020/12/13 06:31:21;;;;;;;36.20;20.97;;;9.20;99.90;;;6.94;100.00;100671.84;5116802;28;21361;-82
2020/12/13 06:34:08;;;;;;;40.43;22.53;;;9.20;99.90;;;6.92;100.00;100672.72;5114873;28;20292;-81
2020/12/13 06:36:55;;;;;;;41.93;23.60;;;9.20;99.90;;;6.93;100.00;100679.59;5091979;28;20205;-79
2020/12/13 06:39:42;;;;;;;38.33;22.60;;;9.20;99.90;;;6.93;100.00;100680.41;5097295;28;20228;-83
2020/12/13 06:42:27;;;;;;;44.93;22.63;;;9.20;99.90;;;6.94;100.00;100681.25;5081564;28;20261;-81
2020/12/13 06:45:15;;;;;;;44.93;23.33;;;9.20;99.90;;;6.94;100.00;100687.28;5085847;28;20238;-81
2020/12/13 06:48:00;;;;;;;40.40;22.67;;;9.10;99.90;;;6.91;100.00;100692.47;5095343;28;20842;-80
2020/12/13 06:50:47;;;;;;;39.23;20.70;;;9.20;99.90;;;6.93;100.00;100695.00;5090081;28;20647;-81
2020/12/13 06:53:34;;;;;;;42.67;20.20;;;9.20;99.90;;;6.91;100.00;100689.88;5095949;28;20595;-81
2020/12/13 06:56:21;;;;;;;44.67;22.33;;;9.20;99.90;;;6.93;100.00;100690.72;5092188;28;20227;-80
2020/12/13 06:59:08;;;;;;;44.33;20.90;;;9.20;99.90;;;6.91;100.00;100694.16;5083738;28;20213;-81
2020/12/13 07:01:53;;;;;;;38.53;21.20;;;9.20;99.90;;;6.91;100.00;100692.47;5087285;28;20205;-81
2020/12/13 07:04:50;;;;;;;42.17;21.27;;;9.20;99.90;;;6.90;100.00;100697.63;5086058;28;20561;-80
2020/12/13 07:07:40;;;;;;;40.80;21.70;;;9.20;99.90;;;6.89;100.00;100707.03;5096687;28;20229;-80
2020/12/13 07:10:30;;;;;;;38.30;22.33;;;9.10;99.90;;;6.86;100.00;100707.06;5097770;28;20290;-81
2020/12/13 07:13:19;;;;;;;38.00;20.10;;;9.20;99.90;;;6.89;100.00;100711.34;5092900;28;20290;-82
2020/12/13 07:16:09;;;;;;;40.50;21.53;;;9.10;99.90;;;6.85;100.00;100711.38;5083773;28;20198;-80
2020/12/13 07:19:04;;;;;;;42.00;21.20;;;9.20;99.90;;;6.91;100.00;100710.47;5081770;28;20205;-80
2020/12/13 07:21:51;;;;;;;41.83;23.63;;;9.10;99.90;;;6.92;100.00;100707.00;5093520;28;20206;-81
2020/12/13 07:24:39;;;;;;;43.67;21.43;;;9.10;99.90;;;6.90;100.00;100703.59;5093895;28;20216;-81
2020/12/13 07:27:27;;;;;;;42.20;20.97;;;9.10;99.90;;;6.89;100.00;100714.75;5094882;28;20564;-80
2020/12/13 07:30:12;;;;;;;39.20;20.97;;;9.10;99.90;;;6.90;100.00;100723.34;5095142;28;20273;-80
2020/12/13 07:32:57;;;;;;;38.60;21.23;;;9.20;99.90;;;6.86;100.00;100717.38;5095055;28;20790;-80
2020/12/13 07:35:43;;;;;;;26.97;16.20;;;9.20;99.90;;;6.88;100.00;100720.78;5090676;28;20201;-81
2020/12/13 07:38:30;;;;;;;38.70;22.57;;;9.20;99.90;;;6.85;100.00;100721.66;5090134;28;20244;-80
2020/12/13 07:41:21;;;;;;;34.33;20.57;;;9.20;99.90;;;6.85;100.00;100725.97;5087900;28;20209;-80
2020/12/13 07:44:08;;;;;;;38.23;22.07;;;9.10;99.90;;;6.82;100.00;100731.13;5082178;28;20234;-79
2020/12/13 07:46:54;;;;;;;38.23;20.93;;;9.10;99.90;;;6.83;100.00;100740.53;5097704;28;20256;-80
2020/12/13 07:49:39;;;;;;;40.63;20.97;;;9.10;99.90;;;6.81;100.00;100743.13;5097063;28;20205;-80
2020/12/13 07:52:24;;;;;;;35.97;20.37;;;9.10;99.90;;;6.82;100.00;100746.53;5088991;28;20213;-80
2020/12/13 07:55:09;;;;;;;39.53;21.77;;;9.10;99.90;;;6.82;100.00;100751.69;5093598;28;20578;-80
2020/12/13 07:57:57;;;;;;;35.20;19.90;;;9.10;99.90;;;6.83;100.00;100753.41;5089551;28;20205;-82
2020/12/13 08:00:42;;;;;;;38.17;21.20;;;9.10;99.90;;;6.84;100.00;100760.25;5092846;28;20207;-82
2020/12/13 08:03:28;;;;;;;35.63;19.50;;;9.10;99.90;;;6.81;100.00;100768.00;5090504;28;20299;-81
2020/12/13 08:06:15;;;;;;;35.67;19.87;;;9.30;99.90;;;6.77;100.00;100767.16;5081335;28;20206;-80
2020/12/13 08:09:00;;;;;;;31.40;18.93;;;9.10;99.90;;;6.77;100.00;100772.31;5094471;28;20208;-81
2020/12/13 08:11:48;;;;;;;35.03;20.93;;;9.10;99.90;;;6.78;100.00;100770.59;5091633;28;20284;-79
2020/12/13 08:14:33;;;;;;;32.03;19.87;;;9.10;99.90;;;6.73;100.00;100767.22;5095507;28;20239;-80
2020/12/13 08:17:19;;;;;;;32.37;18.80;;;9.10;99.90;;;6.76;100.00;100764.63;5082724;28;20214;-80
2020/12/13 08:20:08;;;;;;;31.93;18.00;;;9.10;99.90;;;6.75;100.00;100771.47;5082959;28;20286;-80
2020/12/13 08:26:29;;;;;;;34.67;19.40;;;9.10;99.90;;;6.76;100.00;100780.91;5068509;28;20206;-80
2020/12/13 08:29:16;;;;;;;31.17;18.60;;;9.10;99.90;;;6.76;100.00;100782.59;5083910;28;20209;-80
2020/12/13 08:32:12;;;;;;;32.63;18.43;;;9.10;99.90;;;6.79;100.00;100788.59;5091380;28;20308;-80
2020/12/13 08:35:10;;;;;;;28.13;17.83;;;9.10;99.90;;;6.79;100.00;100792.84;5090491;28;20222;-78
2020/12/13 08:37:56;;;;;;;32.30;19.40;;;9.10;99.90;;;6.83;100.00;100797.09;5092795;28;20273;-79
2020/12/13 08:40:44;;;;;;;32.73;19.80;;;9.10;99.90;;;6.84;100.00;100806.53;5092538;28;20719;-81
2020/12/13 08:43:34;;;;;;;29.07;17.93;;;9.10;99.90;;;6.83;100.00;100804.81;5093715;28;20225;-81
2020/12/13 08:46:33;;;;;;;29.30;18.07;;;9.00;99.90;;;6.83;100.00;100797.09;5088251;28;20209;-81
2020/12/13 08:49:30;;;;;;;28.03;17.37;;;9.10;99.90;;;6.79;100.00;100805.72;5089831;28;20275;-78
2020/12/13 08:52:19;;;;;;;30.90;19.40;;;9.10;99.90;;;6.73;100.00;100816.06;5090767;28;20225;-81
2020/12/13 08:55:05;;;;;;;34.80;18.70;;;9.10;99.90;;;6.72;100.00;100815.22;5091510;28;20225;-79
2020/12/13 08:57:59;;;;;;;32.40;19.17;;;9.10;99.90;;;6.77;100.00;100815.16;5089856;28;20335;-79
2020/12/13 09:00:44;;;;;;;32.90;18.47;;;9.10;99.90;;;6.83;100.00;100822.81;5085666;28;20240;-80
2020/12/13 09:03:29;;;;;;;37.70;20.57;;;9.00;99.90;;;6.85;100.00;100828.81;5080859;28;20677;-79
2020/12/13 09:06:30;;;;;;;30.47;18.03;;;9.10;99.90;;;6.85;100.00;100824.50;5083072;28;20356;-79
2020/12/13 09:09:15;;;;;;;42.37;21.97;;;9.10;99.90;;;6.85;100.00;100831.38;5081937;28;20213;-78
2020/12/13 09:12:02;;;;;;;33.83;18.63;;;9.10;99.90;;;6.86;100.00;100833.06;5109190;28;20185;-80
2020/12/13 09:14:48;;;;;;;39.93;20.67;;;9.10;99.90;;;6.88;100.00;100840.78;5094660;28;20407;-78
2020/12/13 09:17:33;;;;;;;35.17;22.13;;;9.20;99.90;;;6.85;100.00;100837.38;5079132;28;20276;-78
2020/12/13 09:20:24;;;;;;;38.90;21.27;;;9.10;99.90;;;6.85;100.00;100855.38;5079553;28;20323;-79
2020/12/13 09:23:12;;;;;;;42.80;24.20;;;9.20;99.90;;;6.82;100.00;100850.25;5071931;28;20743;-78
2020/12/13 09:25:57;;;;;;;43.10;23.00;;;9.20;99.90;;;6.82;100.00;100862.25;5083820;28;20666;-78
2020/12/13 09:28:42;;;;;;;37.80;22.00;;;9.20;99.90;;;6.80;100.00;100858.84;5088937;28;20208;-78
2020/12/13 09:31:28;;;;;;;45.27;24.33;;;9.20;99.90;;;6.80;100.00;100858.84;5089086;28;20198;-78
2020/12/13 09:34:13;;;;;;;40.63;25.40;;;9.20;99.90;;;6.81;100.00;100866.53;5091762;28;20292;-78
2020/12/13 09:36:58;;;;;;;42.70;27.17;;;9.20;99.90;;;6.82;100.00;100867.38;5092005;28;20301;-78
2020/12/13 09:39:45;;;;;;;51.43;26.60;;;9.20;99.90;;;6.84;100.00;100868.25;5093929;28;20283;-78
2020/12/13 09:42:30;;;;;;;50.30;29.40;;;9.20;99.90;;;6.85;100.00;100877.66;5085762;28;20202;-78
2020/12/13 09:45:16;;;;;;;51.63;29.07;;;9.30;99.90;;;6.84;100.00;100875.97;5089919;28;20217;-78
2020/12/13 09:48:01;;;;;;;48.00;28.83;;;9.20;99.90;;;6.84;100.00;100888.81;5079197;28;20786;-78
2020/12/13 09:50:46;;;;;;;53.20;29.57;;;9.20;99.90;;;6.83;100.00;100887.94;5063945;28;20202;-78
2020/12/13 09:53:32;;;;;;;56.83;30.03;;;9.10;99.90;;;6.83;100.00;100887.09;5070067;28;20738;-78
2020/12/13 09:56:19;;;;;;;60.27;31.20;;;9.20;99.90;;;6.83;100.00;100887.94;5056316;28;20608;-79
2020/12/13 09:59:05;;;;;;;45.17;24.33;;;9.20;99.90;;;6.83;100.00;100893.09;5064858;28;20203;-78
2020/12/13 10:01:50;;;;;;;52.20;30.13;;;9.20;99.90;;;6.83;100.00;100889.66;5067330;28;20932;-78
2020/12/13 10:04:35;;;;;;;56.37;33.87;;;9.20;99.90;;;6.85;100.00;100900.81;5059263;28;20234;-79
2020/12/13 10:07:32;;;;;;;44.70;27.23;;;9.20;99.90;;;6.84;100.00;100904.25;5060411;28;20207;-78
2020/12/13 10:10:16;;;;;;;54.83;32.33;;;9.20;99.90;;;6.89;100.00;100907.59;5063213;28;20227;-78
2020/12/13 10:13:02;;;;;;;50.00;29.50;;;9.20;99.90;;;6.94;100.00;100899.84;5064478;28;20894;-79
2020/12/13 10:15:48;;;;;;;42.20;25.93;;;9.20;99.90;;;6.96;100.00;100908.41;5058371;28;20276;-78
2020/12/13 10:18:33;;;;;;;51.57;29.77;;;9.20;99.90;;;6.98;100.00;100907.53;5058568;28;20207;-79
2020/12/13 10:21:24;;;;;;;45.30;27.33;;;9.30;99.90;;;6.99;100.00;100910.97;5067037;28;20213;-79
2020/12/13 10:24:09;;;;;;;43.53;25.97;;;9.30;99.90;;;7.01;100.00;100909.22;5059189;28;20227;-79
2020/12/13 10:26:56;;;;;;;36.57;24.37;;;9.30;99.90;;;7.00;100.00;100904.97;5060971;28;20226;-79
2020/12/13 10:29:42;;;;;;;33.83;21.47;;;9.30;99.90;;;7.00;100.00;100907.53;5063894;28;20329;-78
2020/12/13 10:32:27;;;;;;;36.37;22.20;;;9.30;99.90;;;7.00;100.00;100913.53;5057719;28;20323;-78
2020/12/13 10:35:12;;;;;;;36.17;23.27;;;9.30;99.90;;;7.04;100.00;100901.47;5055371;28;20637;-80
2020/12/13 10:37:58;;;;;;;40.30;23.07;;;9.30;99.90;;;7.14;100.00;100899.66;5058753;28;20213;-79
2020/12/13 10:40:43;;;;;;;36.57;24.60;;;9.40;99.90;;;7.20;100.00;100892.75;5069964;28;20281;-79
2020/12/13 10:43:28;;;;;;;38.20;21.83;;;9.50;99.90;;;7.21;100.00;100888.44;5058103;28;20281;-79
2020/12/13 10:46:15;;;;;;;33.00;22.20;;;9.40;99.90;;;7.21;100.00;100893.59;5066857;28;20222;-80
2020/12/13 10:49:00;;;;;;;38.07;21.63;;;9.50;99.90;;;7.18;100.00;100894.47;5073637;28;20296;-79
2020/12/13 10:51:48;;;;;;;34.87;22.20;;;9.50;99.90;;;7.24;100.00;100888.41;5092533;28;20691;-80
2020/12/13 10:54:33;;;;;;;31.93;20.30;;;9.40;99.90;;;7.32;100.00;100886.63;5081010;28;20233;-79
2020/12/13 10:57:19;;;;;;;27.80;17.50;;;9.60;99.90;;;7.34;100.00;100884.88;5075261;28;20210;-79
2020/12/13 11:00:05;;;;;;;29.23;17.67;;;9.60;99.90;;;7.41;100.00;100879.66;5080014;28;20206;-79
2020/12/13 11:02:51;;;;;;;24.47;16.20;;;9.60;99.90;;;7.50;100.00;100875.25;5085042;28;20220;-79
2020/12/13 11:05:37;;;;;;;30.50;16.17;;;9.70;99.90;;;7.58;100.00;100874.31;5082812;28;20593;-79
2020/12/13 11:08:23;;;;;;;29.10;15.43;;;9.70;99.90;;;7.60;100.00;100875.97;5093059;28;20198;-80
2020/12/13 11:11:08;;;;;;;19.60;13.10;;;9.80;99.90;;;7.59;100.00;100874.31;5089561;28;20210;-79
2020/12/13 11:13:53;;;;;;;21.93;13.60;;;9.80;99.90;;;7.57;100.00;100877.75;5095762;28;20225;-80
2020/12/13 11:16:38;;;;;;;17.30;10.97;;;9.90;99.90;;;7.50;100.00;100869.25;5093167;28;20780;-79
2020/12/13 11:19:24;;;;;;;25.83;12.10;;;10.00;99.90;;;7.54;100.00;100868.34;5085008;28;20197;-80
2020/12/13 11:22:10;;;;;;;23.07;11.10;;;10.00;99.90;;;7.65;100.00;100868.22;5080330;28;20673;-79
2020/12/13 11:24:55;;;;;;;15.67;10.20;;;10.10;99.90;;;7.67;100.00;100866.47;5086473;28;20233;-81
2020/12/13 11:27:40;;;;;;;21.50;9.70;;;10.10;99.90;;;7.67;100.00;100877.63;5087725;28;20209;-81
2020/12/13 11:30:26;;;;;;;14.97;8.57;;;10.20;99.90;;;7.62;100.00;100875.97;5089363;28;20761;-80